Hauptseite
METAR-TAF:

METAR-TAF

Flughäfen :

Flughafen Cherbourg-Maupertus

Cherbourg, Frankreich

Breite: 49-39N, Länge: 001-28W, Höhe: 138 m

Beobachtung

Neuester Wetterbericht von vor 37 Minuten, um 01:30 UTC
Wind 11 kt aus West
Temperatur 15°C
Luftfeuchtigkeit 94%
Luftdruck 1023 hPa
Sichtweite 10 km oder mehr
Durchbrochene Bewölkung in der Höhe von 800 ft

METAR: LFRC 190130Z AUTO 26011KT 9999 BKN008 15/14 Q1023

Zeit: 04:07 (02:07 UTC)

Prognose

Neuester Wetterbericht von vor 12 Stunden und 7 Minuten, um 14:00 UTC
Gültige Prognose vom 18 um 15 UTC bis 18 um 24 UTC
Wind 13 kt aus West
Sichtweite 10 km oder mehr
Durchbrochene Bewölkung in der Höhe von 2500 ft
Zeitweise
vom 18 um 15 UTC bis 18 um 18 UTC
Durchbrochene Bewölkung in der Höhe von 1300 ft
Übergehend zu
vom 18 um 19 UTC bis 18 um 21 UTC
Wind 5 kt aus Südwest

TAF: LFRC 181400Z 1815/1824 27013KT 9999 BKN025 TEMPO 1815/1818 BKN013 BECMG 1819/1821 23005KT

Wetterbeobachtungen und Prognosen von mehr als 4000 Flughäfen (METAR und TAF Bericht).

Die verfügbaren Stationen werden durch gelbe und rote Markierungen auf der Karte dargestellt.

Führen Sie die Maus auf sie, um den Namen der Station zu sehen.

Darauf klicken, um die Beobachtung von Wetterbeobachtungen und Prognosen zu sehen.

Um die Karte zu ändern : klicken Sie auf den grünen Tasten mit einem schwarzen Kreuz Zum Vergrößern, auf den grünen Button mit einem Gedankenstrich zu verkleinern, oder auf die grünen Pfeile für benachbarte Karten.


METAR-TAF: